24h
KLIENDITUGI:
Saartelennuliinid: +372 58856336 (24/7)
Estairi piletikassa lennujaamas:
+372 6058887; +372 55603687

04.12.2018 hommikune Transaviabaltika lend KTB680 kell 08:35 (kohalik aeg) Tallinn - Kuressaare väljalend ja KTB681 kell 09:30 Kuressaare– Tallinn väljalend hilineb 1 tundi. KTB680 TLL-URE uus väljalennu aeg on kell 09:35 (kohalik aeg) ja KTB681 URE– TLL uus väljalennu aeg on kell 10:30 (kohalik aeg). Lennu hilinemise põhjustab udu Kuressaare lennuväljal. Lisainformatsioon telefonil 5885 6336, informatsiooni vahetus e-mail: [email protected]

EEKE Kuressaare lennuväli

FCEO32 EETN 040600 TAF EEKE 040600Z 0407/0413 21013KT 0400 DZ FG VV002

TEMPO 0407/0409 2000 RADZ BR OVC003 BECMG 0409/0411 8000 BKN005 SCT015CB TEMPO 0411/0413 5000 SHRA=

METAR EEKE 040550Z 21009KT 0150 R17/0550 -DZRA FG VV002 04/04 Q0995 R17/290295=
Kuupäev: 
04/12/2018